sensor_id;sensor_type;location;lat;lon;timestamp;P1;durP1;ratioP1;P2;durP2;ratioP2
12163;SDS011;6145;50.192;10.064;2022-08-19T00:00:35;16.13;;;14.63;;
12163;SDS011;6145;50.192;10.064;2022-08-19T00:03:02;15.83;;;14.43;;
12163;SDS011;6145;50.192;10.064;2022-08-19T00:05:30;14.13;;;12.93;;
12163;SDS011;6145;50.192;10.064;2022-08-19T00:07:58;15.70;;;14.20;;
12163;SDS011;6145;50.192;10.064;2022-08-19T00:10:25;14.23;;;13.03;;
12163;SDS011;6145;50.192;10.064;2022-08-19T00:12:52;15.20;;;13.80;;
12163;SDS011;6145;50.192;10.064;2022-08-19T00:15:19;13.40;;;12.30;;
12163;SDS011;6145;50.192;10.064;2022-08-19T00:17:47;14.13;;;12.93;;
12163;SDS011;6145;50.192;10.064;2022-08-19T00:20:15;14.67;;;13.27;;
12163;SDS011;6145;50.192;10.064;2022-08-19T00:22:44;14.40;;;13.10;;
12163;SDS011;6145;50.192;10.064;2022-08-19T00:25:14;13.83;;;12.63;;
12163;SDS011;6145;50.192;10.064;2022-08-19T00:27:41;14.87;;;13.57;;
12163;SDS011;6145;50.192;10.064;2022-08-19T00:30:08;13.37;;;12.23;;
12163;SDS011;6145;50.192;10.064;2022-08-19T00:32:36;14.20;;;13.00;;
12163;SDS011;6145;50.192;10.064;2022-08-19T00:35:05;12.93;;;11.83;;
12163;SDS011;6145;50.192;10.064;2022-08-19T00:37:34;13.77;;;12.57;;
12163;SDS011;6145;50.192;10.064;2022-08-19T00:40:05;14.43;;;13.17;;
12163;SDS011;6145;50.192;10.064;2022-08-19T00:42:34;13.50;;;12.30;;
12163;SDS011;6145;50.192;10.064;2022-08-19T00:45:01;13.17;;;12.10;;
12163;SDS011;6145;50.192;10.064;2022-08-19T00:47:28;12.63;;;11.53;;
12163;SDS011;6145;50.192;10.064;2022-08-19T00:49:56;13.57;;;12.27;;
12163;SDS011;6145;50.192;10.064;2022-08-19T00:52:25;12.83;;;11.73;;
12163;SDS011;6145;50.192;10.064;2022-08-19T00:54:54;13.37;;;12.17;;
12163;SDS011;6145;50.192;10.064;2022-08-19T00:57:23;13.00;;;11.90;;
12163;SDS011;6145;50.192;10.064;2022-08-19T00:59:56;13.00;;;11.90;;
12163;SDS011;6145;50.192;10.064;2022-08-19T01:02:24;13.07;;;11.87;;
12163;SDS011;6145;50.192;10.064;2022-08-19T01:04:52;12.77;;;11.67;;
12163;SDS011;6145;50.192;10.064;2022-08-19T01:07:19;12.93;;;11.83;;
12163;SDS011;6145;50.192;10.064;2022-08-19T01:09:46;13.10;;;12.00;;
12163;SDS011;6145;50.192;10.064;2022-08-19T01:12:13;13.33;;;12.20;;
12163;SDS011;6145;50.192;10.064;2022-08-19T01:14:41;13.40;;;12.10;;
12163;SDS011;6145;50.192;10.064;2022-08-19T01:17:10;13.93;;;12.73;;
12163;SDS011;6145;50.192;10.064;2022-08-19T01:19:39;14.10;;;12.80;;
12163;SDS011;6145;50.192;10.064;2022-08-19T01:22:09;13.13;;;12.00;;
12163;SDS011;6145;50.192;10.064;2022-08-19T01:24:43;14.00;;;12.77;;
12163;SDS011;6145;50.192;10.064;2022-08-19T01:27:10;14.47;;;13.17;;
12163;SDS011;6145;50.192;10.064;2022-08-19T01:29:37;13.83;;;12.53;;
12163;SDS011;6145;50.192;10.064;2022-08-19T01:32:05;13.60;;;12.40;;
12163;SDS011;6145;50.192;10.064;2022-08-19T01:34:33;14.77;;;13.47;;
12163;SDS011;6145;50.192;10.064;2022-08-19T01:37:00;14.23;;;12.93;;
12163;SDS011;6145;50.192;10.064;2022-08-19T01:39:33;14.77;;;13.47;;
12163;SDS011;6145;50.192;10.064;2022-08-19T01:42:01;14.80;;;13.50;;
12163;SDS011;6145;50.192;10.064;2022-08-19T01:44:29;15.23;;;13.83;;
12163;SDS011;6145;50.192;10.064;2022-08-19T01:46:56;13.50;;;12.30;;
12163;SDS011;6145;50.192;10.064;2022-08-19T01:49:23;13.63;;;12.43;;
12163;SDS011;6145;50.192;10.064;2022-08-19T01:51:51;14.17;;;12.90;;
12163;SDS011;6145;50.192;10.064;2022-08-19T01:54:20;14.67;;;13.37;;
12163;SDS011;6145;50.192;10.064;2022-08-19T01:56:48;14.57;;;13.27;;
12163;SDS011;6145;50.192;10.064;2022-08-19T01:59:18;14.50;;;13.20;;
12163;SDS011;6145;50.192;10.064;2022-08-19T02:01:47;15.13;;;13.77;;
12163;SDS011;6145;50.192;10.064;2022-08-19T02:04:14;14.37;;;13.17;;
12163;SDS011;6145;50.192;10.064;2022-08-19T02:06:41;15.13;;;13.83;;
12163;SDS011;6145;50.192;10.064;2022-08-19T02:09:08;15.67;;;14.27;;
12163;SDS011;6145;50.192;10.064;2022-08-19T02:11:35;14.47;;;13.23;;
12163;SDS011;6145;50.192;10.064;2022-08-19T02:14:04;14.53;;;13.33;;
12163;SDS011;6145;50.192;10.064;2022-08-19T02:16:34;14.17;;;12.97;;
12163;SDS011;6145;50.192;10.064;2022-08-19T02:19:02;14.17;;;12.87;;
12163;SDS011;6145;50.192;10.064;2022-08-19T02:21:29;14.37;;;13.07;;
12163;SDS011;6145;50.192;10.064;2022-08-19T02:23:56;13.73;;;12.53;;
12163;SDS011;6145;50.192;10.064;2022-08-19T02:26:24;14.27;;;12.97;;
12163;SDS011;6145;50.192;10.064;2022-08-19T02:28:52;14.97;;;13.57;;
12163;SDS011;6145;50.192;10.064;2022-08-19T02:31:20;14.80;;;13.50;;
12163;SDS011;6145;50.192;10.064;2022-08-19T02:33:50;14.43;;;13.13;;
12163;SDS011;6145;50.192;10.064;2022-08-19T02:36:17;14.07;;;12.77;;
12163;SDS011;6145;50.192;10.064;2022-08-19T02:38:44;14.23;;;13.03;;
12163;SDS011;6145;50.192;10.064;2022-08-19T02:41:11;14.87;;;13.37;;
12163;SDS011;6145;50.192;10.064;2022-08-19T02:43:41;14.53;;;13.33;;
12163;SDS011;6145;50.192;10.064;2022-08-19T02:46:12;14.17;;;12.97;;
12163;SDS011;6145;50.192;10.064;2022-08-19T02:48:42;14.37;;;13.07;;
12163;SDS011;6145;50.192;10.064;2022-08-19T02:51:15;14.70;;;13.40;;
12163;SDS011;6145;50.192;10.064;2022-08-19T02:53:42;14.50;;;13.23;;
12163;SDS011;6145;50.192;10.064;2022-08-19T02:56:09;14.97;;;13.57;;
12163;SDS011;6145;50.192;10.064;2022-08-19T02:58:36;13.93;;;12.73;;
12163;SDS011;6145;50.192;10.064;2022-08-19T03:01:02;14.07;;;12.87;;
12163;SDS011;6145;50.192;10.064;2022-08-19T03:03:29;13.80;;;12.60;;
12163;SDS011;6145;50.192;10.064;2022-08-19T03:06:07;14.47;;;13.17;;
12163;SDS011;6145;50.192;10.064;2022-08-19T03:08:37;14.57;;;13.27;;
12163;SDS011;6145;50.192;10.064;2022-08-19T03:11:05;13.60;;;12.30;;
12163;SDS011;6145;50.192;10.064;2022-08-19T03:13:32;14.20;;;12.93;;
12163;SDS011;6145;50.192;10.064;2022-08-19T03:15:59;14.13;;;12.93;;
12163;SDS011;6145;50.192;10.064;2022-08-19T03:18:25;14.60;;;13.30;;
12163;SDS011;6145;50.192;10.064;2022-08-19T03:20:52;14.07;;;12.77;;
12163;SDS011;6145;50.192;10.064;2022-08-19T03:23:19;13.33;;;12.13;;
12163;SDS011;6145;50.192;10.064;2022-08-19T03:25:49;14.10;;;12.83;;
12163;SDS011;6145;50.192;10.064;2022-08-19T03:28:17;14.37;;;12.97;;
12163;SDS011;6145;50.192;10.064;2022-08-19T03:30:54;13.60;;;12.37;;
12163;SDS011;6145;50.192;10.064;2022-08-19T03:33:22;13.77;;;12.57;;
12163;SDS011;6145;50.192;10.064;2022-08-19T03:35:59;14.27;;;12.97;;
12163;SDS011;6145;50.192;10.064;2022-08-19T03:38:27;13.50;;;12.27;;
12163;SDS011;6145;50.192;10.064;2022-08-19T03:40:55;14.43;;;13.13;;
12163;SDS011;6145;50.192;10.064;2022-08-19T03:43:22;14.17;;;12.87;;
12163;SDS011;6145;50.192;10.064;2022-08-19T03:45:49;13.80;;;12.60;;
12163;SDS011;6145;50.192;10.064;2022-08-19T03:48:25;14.70;;;13.37;;
12163;SDS011;6145;50.192;10.064;2022-08-19T03:50:52;14.53;;;13.23;;
12163;SDS011;6145;50.192;10.064;2022-08-19T03:53:19;14.13;;;12.77;;
12163;SDS011;6145;50.192;10.064;2022-08-19T03:55:46;14.13;;;12.90;;
12163;SDS011;6145;50.192;10.064;2022-08-19T03:58:14;14.70;;;13.23;;
12163;SDS011;6145;50.192;10.064;2022-08-19T04:00:41;14.93;;;13.63;;
12163;SDS011;6145;50.192;10.064;2022-08-19T04:03:08;14.30;;;13.10;;
12163;SDS011;6145;50.192;10.064;2022-08-19T04:05:35;14.33;;;13.13;;
12163;SDS011;6145;50.192;10.064;2022-08-19T04:08:03;14.37;;;13.17;;
12163;SDS011;6145;50.192;10.064;2022-08-19T04:10:30;13.83;;;12.53;;
12163;SDS011;6145;50.192;10.064;2022-08-19T04:12:57;14.53;;;13.23;;
12163;SDS011;6145;50.192;10.064;2022-08-19T04:15:26;14.07;;;12.83;;
12163;SDS011;6145;50.192;10.064;2022-08-19T04:17:58;14.67;;;13.37;;
12163;SDS011;6145;50.192;10.064;2022-08-19T04:20:25;14.57;;;13.27;;
12163;SDS011;6145;50.192;10.064;2022-08-19T04:22:51;14.73;;;13.37;;
12163;SDS011;6145;50.192;10.064;2022-08-19T04:25:18;14.63;;;13.30;;
12163;SDS011;6145;50.192;10.064;2022-08-19T04:27:45;14.10;;;12.90;;
12163;SDS011;6145;50.192;10.064;2022-08-19T04:30:13;15.00;;;13.57;;
12163;SDS011;6145;50.192;10.064;2022-08-19T04:32:43;15.27;;;13.97;;
12163;SDS011;6145;50.192;10.064;2022-08-19T04:35:10;14.43;;;13.13;;
12163;SDS011;6145;50.192;10.064;2022-08-19T04:37:37;14.57;;;13.27;;
12163;SDS011;6145;50.192;10.064;2022-08-19T04:40:05;14.13;;;12.93;;
12163;SDS011;6145;50.192;10.064;2022-08-19T04:42:50;14.30;;;13.10;;
12163;SDS011;6145;50.192;10.064;2022-08-19T04:45:18;14.17;;;12.97;;
12163;SDS011;6145;50.192;10.064;2022-08-19T04:47:46;14.20;;;13.00;;
12163;SDS011;6145;50.192;10.064;2022-08-19T04:50:13;13.13;;;11.97;;
12163;SDS011;6145;50.192;10.064;2022-08-19T04:52:40;13.87;;;12.70;;
12163;SDS011;6145;50.192;10.064;2022-08-19T04:55:08;13.67;;;12.47;;
12163;SDS011;6145;50.192;10.064;2022-08-19T04:57:35;14.17;;;12.87;;
12163;SDS011;6145;50.192;10.064;2022-08-19T05:00:04;13.67;;;12.47;;
12163;SDS011;6145;50.192;10.064;2022-08-19T05:02:33;12.70;;;11.47;;
12163;SDS011;6145;50.192;10.064;2022-08-19T05:05:01;13.37;;;12.17;;
12163;SDS011;6145;50.192;10.064;2022-08-19T05:07:28;13.97;;;12.57;;
12163;SDS011;6145;50.192;10.064;2022-08-19T05:09:55;13.43;;;12.33;;
12163;SDS011;6145;50.192;10.064;2022-08-19T05:12:22;13.37;;;12.17;;
12163;SDS011;6145;50.192;10.064;2022-08-19T05:14:49;13.27;;;12.13;;
12163;SDS011;6145;50.192;10.064;2022-08-19T05:17:17;13.00;;;11.80;;
12163;SDS011;6145;50.192;10.064;2022-08-19T05:19:43;12.53;;;11.43;;
12163;SDS011;6145;50.192;10.064;2022-08-19T05:22:29;14.23;;;12.93;;
12163;SDS011;6145;50.192;10.064;2022-08-19T05:24:59;13.07;;;11.97;;
12163;SDS011;6145;50.192;10.064;2022-08-19T05:27:27;13.33;;;12.13;;
12163;SDS011;6145;50.192;10.064;2022-08-19T05:29:54;13.50;;;12.40;;
12163;SDS011;6145;50.192;10.064;2022-08-19T05:32:20;13.70;;;12.50;;
12163;SDS011;6145;50.192;10.064;2022-08-19T05:34:48;13.30;;;12.20;;
12163;SDS011;6145;50.192;10.064;2022-08-19T05:37:15;13.13;;;12.03;;
12163;SDS011;6145;50.192;10.064;2022-08-19T05:39:43;13.50;;;12.40;;
12163;SDS011;6145;50.192;10.064;2022-08-19T05:42:10;13.70;;;12.50;;
12163;SDS011;6145;50.192;10.064;2022-08-19T05:44:38;13.00;;;11.80;;
12163;SDS011;6145;50.192;10.064;2022-08-19T05:47:09;13.63;;;12.53;;
12163;SDS011;6145;50.192;10.064;2022-08-19T05:49:38;13.30;;;12.20;;
12163;SDS011;6145;50.192;10.064;2022-08-19T05:52:05;13.47;;;12.27;;
12163;SDS011;6145;50.192;10.064;2022-08-19T05:54:36;12.10;;;11.10;;
12163;SDS011;6145;50.192;10.064;2022-08-19T05:57:06;13.47;;;12.37;;
12163;SDS011;6145;50.192;10.064;2022-08-19T05:59:34;14.33;;;13.13;;
12163;SDS011;6145;50.192;10.064;2022-08-19T06:02:02;12.90;;;11.70;;
12163;SDS011;6145;50.192;10.064;2022-08-19T06:04:30;13.13;;;12.03;;
12163;SDS011;6145;50.192;10.064;2022-08-19T06:06:56;13.57;;;12.43;;
12163;SDS011;6145;50.192;10.064;2022-08-19T06:09:23;13.73;;;12.53;;
12163;SDS011;6145;50.192;10.064;2022-08-19T06:11:50;13.50;;;12.30;;
12163;SDS011;6145;50.192;10.064;2022-08-19T06:14:21;14.70;;;13.40;;
12163;SDS011;6145;50.192;10.064;2022-08-19T06:16:49;13.47;;;12.33;;
12163;SDS011;6145;50.192;10.064;2022-08-19T06:19:17;14.87;;;13.57;;
12163;SDS011;6145;50.192;10.064;2022-08-19T06:21:46;13.90;;;12.70;;
12163;SDS011;6145;50.192;10.064;2022-08-19T06:24:16;13.57;;;12.37;;
12163;SDS011;6145;50.192;10.064;2022-08-19T06:26:45;13.83;;;12.63;;
12163;SDS011;6145;50.192;10.064;2022-08-19T06:29:14;13.33;;;12.23;;
12163;SDS011;6145;50.192;10.064;2022-08-19T06:31:45;14.37;;;13.17;;
12163;SDS011;6145;50.192;10.064;2022-08-19T06:34:15;12.60;;;11.60;;
12163;SDS011;6145;50.192;10.064;2022-08-19T06:36:44;13.80;;;12.60;;
12163;SDS011;6145;50.192;10.064;2022-08-19T06:39:13;14.33;;;13.03;;
12163;SDS011;6145;50.192;10.064;2022-08-19T06:41:42;12.97;;;11.90;;
12163;SDS011;6145;50.192;10.064;2022-08-19T06:44:12;12.50;;;11.37;;
12163;SDS011;6145;50.192;10.064;2022-08-19T06:46:40;13.50;;;12.40;;
12163;SDS011;6145;50.192;10.064;2022-08-19T06:49:09;12.93;;;11.83;;
12163;SDS011;6145;50.192;10.064;2022-08-19T06:51:38;13.40;;;12.30;;
12163;SDS011;6145;50.192;10.064;2022-08-19T06:54:06;13.70;;;12.60;;
12163;SDS011;6145;50.192;10.064;2022-08-19T06:56:33;13.33;;;12.23;;
12163;SDS011;6145;50.192;10.064;2022-08-19T06:59:00;12.47;;;11.47;;
12163;SDS011;6145;50.192;10.064;2022-08-19T07:01:28;13.67;;;12.57;;
12163;SDS011;6145;50.192;10.064;2022-08-19T07:03:55;12.80;;;11.67;;
12163;SDS011;6145;50.192;10.064;2022-08-19T07:06:24;13.30;;;12.20;;
12163;SDS011;6145;50.192;10.064;2022-08-19T07:08:50;13.27;;;12.17;;
12163;SDS011;6145;50.192;10.064;2022-08-19T07:11:17;12.23;;;11.20;;
12163;SDS011;6145;50.192;10.064;2022-08-19T07:13:45;12.67;;;11.67;;
12163;SDS011;6145;50.192;10.064;2022-08-19T07:16:14;12.77;;;11.77;;
12163;SDS011;6145;50.192;10.064;2022-08-19T07:18:42;13.27;;;12.17;;
12163;SDS011;6145;50.192;10.064;2022-08-19T07:21:10;12.33;;;11.33;;
12163;SDS011;6145;50.192;10.064;2022-08-19T07:23:40;11.97;;;11.03;;
12163;SDS011;6145;50.192;10.064;2022-08-19T07:26:07;12.37;;;11.30;;
12163;SDS011;6145;50.192;10.064;2022-08-19T07:28:35;11.83;;;10.83;;
12163;SDS011;6145;50.192;10.064;2022-08-19T07:31:04;12.17;;;11.17;;
12163;SDS011;6145;50.192;10.064;2022-08-19T07:33:31;12.83;;;11.73;;
12163;SDS011;6145;50.192;10.064;2022-08-19T07:36:00;11.57;;;10.67;;
12163;SDS011;6145;50.192;10.064;2022-08-19T07:38:27;12.10;;;11.10;;
12163;SDS011;6145;50.192;10.064;2022-08-19T07:40:55;12.93;;;11.80;;
12163;SDS011;6145;50.192;10.064;2022-08-19T07:43:22;12.97;;;11.97;;
12163;SDS011;6145;50.192;10.064;2022-08-19T07:45:50;11.55;;;10.60;;
12163;SDS011;6145;50.192;10.064;2022-08-19T07:48:17;11.27;;;10.35;;
12163;SDS011;6145;50.192;10.064;2022-08-19T07:50:43;10.90;;;10.10;;
12163;SDS011;6145;50.192;10.064;2022-08-19T07:53:10;11.95;;;10.95;;
12163;SDS011;6145;50.192;10.064;2022-08-19T07:55:38;12.02;;;11.15;;
12163;SDS011;6145;50.192;10.064;2022-08-19T07:58:06;12.20;;;11.10;;
12163;SDS011;6145;50.192;10.064;2022-08-19T08:00:32;11.95;;;10.95;;
12163;SDS011;6145;50.192;10.064;2022-08-19T08:03:00;11.20;;;10.30;;
12163;SDS011;6145;50.192;10.064;2022-08-19T08:05:26;10.73;;;9.85;;
12163;SDS011;6145;50.192;10.064;2022-08-19T08:08:11;10.43;;;9.70;;
12163;SDS011;6145;50.192;10.064;2022-08-19T08:10:55;10.93;;;10.13;;
12163;SDS011;6145;50.192;10.064;2022-08-19T08:13:23;11.00;;;10.10;;
12163;SDS011;6145;50.192;10.064;2022-08-19T08:15:50;9.80;;;9.07;;
12163;SDS011;6145;50.192;10.064;2022-08-19T08:18:17;10.80;;;10.00;;
12163;SDS011;6145;50.192;10.064;2022-08-19T08:20:45;9.60;;;8.90;;
12163;SDS011;6145;50.192;10.064;2022-08-19T08:23:12;10.05;;;9.32;;
12163;SDS011;6145;50.192;10.064;2022-08-19T08:25:49;9.57;;;8.88;;
12163;SDS011;6145;50.192;10.064;2022-08-19T08:28:17;9.73;;;9.02;;
12163;SDS011;6145;50.192;10.064;2022-08-19T08:30:46;9.40;;;8.70;;
12163;SDS011;6145;50.192;10.064;2022-08-19T08:33:17;10.80;;;10.00;;
12163;SDS011;6145;50.192;10.064;2022-08-19T08:35:46;10.02;;;9.32;;
12163;SDS011;6145;50.192;10.064;2022-08-19T08:38:13;9.18;;;8.48;;
12163;SDS011;6145;50.192;10.064;2022-08-19T08:40:43;9.77;;;9.07;;
12163;SDS011;6145;50.192;10.064;2022-08-19T08:43:19;9.70;;;9.00;;
12163;SDS011;6145;50.192;10.064;2022-08-19T08:45:54;9.43;;;8.73;;
12163;SDS011;6145;50.192;10.064;2022-08-19T08:48:30;9.32;;;8.63;;
12163;SDS011;6145;50.192;10.064;2022-08-19T08:51:06;8.80;;;8.20;;
12163;SDS011;6145;50.192;10.064;2022-08-19T08:53:37;8.93;;;8.32;;
12163;SDS011;6145;50.192;10.064;2022-08-19T08:56:05;8.43;;;7.82;;
12163;SDS011;6145;50.192;10.064;2022-08-19T08:58:39;8.40;;;7.80;;
12163;SDS011;6145;50.192;10.064;2022-08-19T09:01:14;9.18;;;8.57;;
12163;SDS011;6145;50.192;10.064;2022-08-19T09:03:41;8.52;;;7.93;;
12163;SDS011;6145;50.192;10.064;2022-08-19T09:06:12;8.93;;;8.27;;
12163;SDS011;6145;50.192;10.064;2022-08-19T09:08:46;8.63;;;7.95;;
12163;SDS011;6145;50.192;10.064;2022-08-19T09:11:22;8.45;;;7.85;;
12163;SDS011;6145;50.192;10.064;2022-08-19T09:14:02;8.60;;;8.00;;
12163;SDS011;6145;50.192;10.064;2022-08-19T09:16:36;11.77;;;8.88;;
12163;SDS011;6145;50.192;10.064;2022-08-19T09:19:05;9.50;;;8.43;;
12163;SDS011;6145;50.192;10.064;2022-08-19T09:21:34;8.40;;;7.70;;
12163;SDS011;6145;50.192;10.064;2022-08-19T09:24:01;7.40;;;6.85;;
12163;SDS011;6145;50.192;10.064;2022-08-19T09:26:29;7.90;;;7.32;;
12163;SDS011;6145;50.192;10.064;2022-08-19T09:28:57;7.80;;;7.20;;
12163;SDS011;6145;50.192;10.064;2022-08-19T09:31:27;6.88;;;6.38;;
12163;SDS011;6145;50.192;10.064;2022-08-19T09:33:56;6.40;;;5.90;;
12163;SDS011;6145;50.192;10.064;2022-08-19T09:36:23;5.32;;;4.88;;
12163;SDS011;6145;50.192;10.064;2022-08-19T09:38:52;5.30;;;4.90;;
12163;SDS011;6145;50.192;10.064;2022-08-19T09:41:20;4.50;;;4.20;;
12163;SDS011;6145;50.192;10.064;2022-08-19T09:43:49;4.80;;;4.40;;
12163;SDS011;6145;50.192;10.064;2022-08-19T09:46:18;4.32;;;3.92;;
12163;SDS011;6145;50.192;10.064;2022-08-19T09:48:46;4.20;;;3.90;;
12163;SDS011;6145;50.192;10.064;2022-08-19T09:51:16;3.75;;;3.45;;
12163;SDS011;6145;50.192;10.064;2022-08-19T09:53:44;4.32;;;4.03;;
12163;SDS011;6145;50.192;10.064;2022-08-19T09:56:14;4.53;;;3.90;;
12163;SDS011;6145;50.192;10.064;2022-08-19T09:58:42;4.25;;;3.95;;
12163;SDS011;6145;50.192;10.064;2022-08-19T10:01:11;3.97;;;3.67;;
12163;SDS011;6145;50.192;10.064;2022-08-19T10:03:44;4.03;;;3.72;;
12163;SDS011;6145;50.192;10.064;2022-08-19T10:06:15;3.92;;;3.63;;
12163;SDS011;6145;50.192;10.064;2022-08-19T10:08:42;4.03;;;3.80;;
12163;SDS011;6145;50.192;10.064;2022-08-19T10:11:09;3.63;;;3.42;;
12163;SDS011;6145;50.192;10.064;2022-08-19T10:13:36;3.65;;;3.45;;
12163;SDS011;6145;50.192;10.064;2022-08-19T10:16:04;3.00;;;2.80;;
12163;SDS011;6145;50.192;10.064;2022-08-19T10:18:32;3.50;;;3.28;;
12163;SDS011;6145;50.192;10.064;2022-08-19T10:21:04;3.50;;;3.30;;
12163;SDS011;6145;50.192;10.064;2022-08-19T10:23:35;3.42;;;3.17;;
12163;SDS011;6145;50.192;10.064;2022-08-19T10:26:03;3.65;;;3.35;;
12163;SDS011;6145;50.192;10.064;2022-08-19T10:28:32;3.05;;;2.85;;
12163;SDS011;6145;50.192;10.064;2022-08-19T10:31:05;3.05;;;2.85;;
12163;SDS011;6145;50.192;10.064;2022-08-19T10:33:32;2.75;;;2.58;;
12163;SDS011;6145;50.192;10.064;2022-08-19T10:36:00;2.80;;;2.60;;
12163;SDS011;6145;50.192;10.064;2022-08-19T10:38:29;3.00;;;2.80;;
12163;SDS011;6145;50.192;10.064;2022-08-19T10:40:57;2.92;;;2.72;;
12163;SDS011;6145;50.192;10.064;2022-08-19T10:43:32;2.83;;;2.63;;
12163;SDS011;6145;50.192;10.064;2022-08-19T10:46:02;3.45;;;2.80;;
12163;SDS011;6145;50.192;10.064;2022-08-19T10:48:30;2.92;;;2.72;;
12163;SDS011;6145;50.192;10.064;2022-08-19T10:50:57;2.97;;;2.78;;
12163;SDS011;6145;50.192;10.064;2022-08-19T10:53:42;2.80;;;2.60;;
12163;SDS011;6145;50.192;10.064;2022-08-19T10:56:11;2.65;;;2.55;;
12163;SDS011;6145;50.192;10.064;2022-08-19T10:58:55;2.92;;;2.72;;
12163;SDS011;6145;50.192;10.064;2022-08-19T11:01:22;3.00;;;2.80;;
12163;SDS011;6145;50.192;10.064;2022-08-19T11:03:49;2.70;;;2.50;;
12163;SDS011;6145;50.192;10.064;2022-08-19T11:06:17;3.08;;;2.88;;
12163;SDS011;6145;50.192;10.064;2022-08-19T11:08:45;2.72;;;2.53;;
12163;SDS011;6145;50.192;10.064;2022-08-19T11:11:13;2.95;;;2.75;;
12163;SDS011;6145;50.192;10.064;2022-08-19T11:13:40;2.95;;;2.75;;
12163;SDS011;6145;50.192;10.064;2022-08-19T11:16:09;3.17;;;2.88;;
12163;SDS011;6145;50.192;10.064;2022-08-19T11:18:39;3.22;;;3.03;;
12163;SDS011;6145;50.192;10.064;2022-08-19T11:21:08;3.15;;;2.85;;
12163;SDS011;6145;50.192;10.064;2022-08-19T11:23:37;3.17;;;2.88;;
12163;SDS011;6145;50.192;10.064;2022-08-19T11:26:04;2.88;;;2.67;;
12163;SDS011;6145;50.192;10.064;2022-08-19T11:28:32;2.90;;;2.70;;
12163;SDS011;6145;50.192;10.064;2022-08-19T11:30:59;2.67;;;2.47;;
12163;SDS011;6145;50.192;10.064;2022-08-19T11:33:28;2.95;;;2.75;;
12163;SDS011;6145;50.192;10.064;2022-08-19T11:35:56;2.85;;;2.65;;
12163;SDS011;6145;50.192;10.064;2022-08-19T11:38:23;3.15;;;2.83;;
12163;SDS011;6145;50.192;10.064;2022-08-19T11:40:54;2.63;;;2.42;;
12163;SDS011;6145;50.192;10.064;2022-08-19T11:43:21;3.00;;;2.70;;
12163;SDS011;6145;50.192;10.064;2022-08-19T11:45:50;2.92;;;2.70;;
12163;SDS011;6145;50.192;10.064;2022-08-19T11:48:17;5.07;;;2.80;;
12163;SDS011;6145;50.192;10.064;2022-08-19T11:50:47;2.50;;;2.30;;
12163;SDS011;6145;50.192;10.064;2022-08-19T11:53:14;2.28;;;2.17;;
12163;SDS011;6145;50.192;10.064;2022-08-19T11:55:41;2.25;;;2.08;;
12163;SDS011;6145;50.192;10.064;2022-08-19T11:58:09;2.40;;;2.20;;
12163;SDS011;6145;50.192;10.064;2022-08-19T12:00:37;2.00;;;1.90;;
12163;SDS011;6145;50.192;10.064;2022-08-19T12:03:06;1.95;;;1.85;;
12163;SDS011;6145;50.192;10.064;2022-08-19T12:05:35;2.28;;;2.13;;
12163;SDS011;6145;50.192;10.064;2022-08-19T12:08:02;2.38;;;2.17;;
12163;SDS011;6145;50.192;10.064;2022-08-19T12:10:29;1.90;;;1.80;;
12163;SDS011;6145;50.192;10.064;2022-08-19T12:12:56;2.10;;;1.90;;
12163;SDS011;6145;50.192;10.064;2022-08-19T12:15:23;2.45;;;2.20;;
12163;SDS011;6145;50.192;10.064;2022-08-19T12:17:50;2.38;;;2.15;;
12163;SDS011;6145;50.192;10.064;2022-08-19T12:20:23;2.97;;;2.10;;
12163;SDS011;6145;50.192;10.064;2022-08-19T12:22:51;2.42;;;2.10;;
12163;SDS011;6145;50.192;10.064;2022-08-19T12:25:18;3.28;;;1.90;;
12163;SDS011;6145;50.192;10.064;2022-08-19T12:27:45;2.30;;;1.80;;
12163;SDS011;6145;50.192;10.064;2022-08-19T12:30:13;1.90;;;1.80;;
12163;SDS011;6145;50.192;10.064;2022-08-19T12:32:40;2.25;;;2.05;;
12163;SDS011;6145;50.192;10.064;2022-08-19T12:35:07;1.98;;;1.88;;
12163;SDS011;6145;50.192;10.064;2022-08-19T12:37:37;2.10;;;1.80;;
12163;SDS011;6145;50.192;10.064;2022-08-19T12:40:07;2.40;;;2.15;;
12163;SDS011;6145;50.192;10.064;2022-08-19T12:42:36;3.72;;;2.28;;
12163;SDS011;6145;50.192;10.064;2022-08-19T12:45:07;2.10;;;1.95;;
12163;SDS011;6145;50.192;10.064;2022-08-19T12:47:35;1.90;;;1.80;;
12163;SDS011;6145;50.192;10.064;2022-08-19T12:50:02;1.80;;;1.70;;
12163;SDS011;6145;50.192;10.064;2022-08-19T12:52:52;3.25;;;2.00;;
12163;SDS011;6145;50.192;10.064;2022-08-19T12:55:19;2.92;;;1.83;;
12163;SDS011;6145;50.192;10.064;2022-08-19T12:57:46;2.08;;;1.98;;
12163;SDS011;6145;50.192;10.064;2022-08-19T13:00:15;2.50;;;2.30;;
12163;SDS011;6145;50.192;10.064;2022-08-19T13:02:43;2.15;;;1.95;;
12163;SDS011;6145;50.192;10.064;2022-08-19T13:05:12;2.25;;;2.05;;
12163;SDS011;6145;50.192;10.064;2022-08-19T13:07:42;1.90;;;1.80;;
12163;SDS011;6145;50.192;10.064;2022-08-19T13:10:11;1.95;;;1.85;;
12163;SDS011;6145;50.192;10.064;2022-08-19T13:12:45;2.22;;;1.90;;
12163;SDS011;6145;50.192;10.064;2022-08-19T13:15:14;2.00;;;1.90;;
12163;SDS011;6145;50.192;10.064;2022-08-19T13:17:45;1.98;;;1.88;;
12163;SDS011;6145;50.192;10.064;2022-08-19T13:20:13;2.00;;;1.90;;
12163;SDS011;6145;50.192;10.064;2022-08-19T13:22:41;1.90;;;1.75;;
12163;SDS011;6145;50.192;10.064;2022-08-19T13:25:11;2.10;;;2.00;;
12163;SDS011;6145;50.192;10.064;2022-08-19T13:27:38;1.77;;;1.67;;
12163;SDS011;6145;50.192;10.064;2022-08-19T13:30:06;1.80;;;1.70;;
12163;SDS011;6145;50.192;10.064;2022-08-19T13:32:52;1.90;;;1.80;;
12163;SDS011;6145;50.192;10.064;2022-08-19T13:35:39;1.90;;;1.80;;
12163;SDS011;6145;50.192;10.064;2022-08-19T13:38:10;2.03;;;1.80;;
12163;SDS011;6145;50.192;10.064;2022-08-19T13:40:40;2.10;;;2.00;;
12163;SDS011;6145;50.192;10.064;2022-08-19T13:43:07;3.05;;;2.38;;
12163;SDS011;6145;50.192;10.064;2022-08-19T13:45:35;2.33;;;2.17;;
12163;SDS011;6145;50.192;10.064;2022-08-19T13:48:02;3.65;;;2.08;;
12163;SDS011;6145;50.192;10.064;2022-08-19T13:50:32;4.60;;;2.00;;
12163;SDS011;6145;50.192;10.064;2022-08-19T13:53:00;2.53;;;2.00;;
12163;SDS011;6145;50.192;10.064;2022-08-19T13:55:28;2.10;;;2.00;;
12163;SDS011;6145;50.192;10.064;2022-08-19T13:57:58;2.22;;;2.10;;
12163;SDS011;6145;50.192;10.064;2022-08-19T14:00:28;2.65;;;2.10;;
12163;SDS011;6145;50.192;10.064;2022-08-19T14:02:57;2.03;;;1.92;;
12163;SDS011;6145;50.192;10.064;2022-08-19T14:05:25;1.85;;;1.70;;
12163;SDS011;6145;50.192;10.064;2022-08-19T14:07:53;2.03;;;1.92;;
12163;SDS011;6145;50.192;10.064;2022-08-19T14:10:20;6.20;;;2.50;;
12163;SDS011;6145;50.192;10.064;2022-08-19T14:12:48;2.60;;;2.10;;
12163;SDS011;6145;50.192;10.064;2022-08-19T14:15:16;3.55;;;2.20;;
12163;SDS011;6145;50.192;10.064;2022-08-19T14:17:43;3.70;;;2.35;;
12163;SDS011;6145;50.192;10.064;2022-08-19T14:20:11;2.45;;;2.25;;
12163;SDS011;6145;50.192;10.064;2022-08-19T14:22:41;2.05;;;1.95;;
12163;SDS011;6145;50.192;10.064;2022-08-19T14:25:09;2.20;;;2.10;;
12163;SDS011;6145;50.192;10.064;2022-08-19T14:27:38;2.10;;;2.00;;
12163;SDS011;6145;50.192;10.064;2022-08-19T14:30:07;2.22;;;2.13;;
12163;SDS011;6145;50.192;10.064;2022-08-19T14:32:36;2.42;;;1.90;;
12163;SDS011;6145;50.192;10.064;2022-08-19T14:35:03;1.90;;;1.80;;
12163;SDS011;6145;50.192;10.064;2022-08-19T14:37:32;9.32;;;3.33;;
12163;SDS011;6145;50.192;10.064;2022-08-19T14:39:59;4.43;;;2.60;;
12163;SDS011;6145;50.192;10.064;2022-08-19T14:42:26;4.93;;;3.20;;